Time;durP1;ratioP1;P1;durP2;ratioP2;P2;SDS_P1;SDS_P2;PMS_P1;PMS_P2;Temp;Humidity;BMP_temperature;BMP_pressure;BME280_temperature;BME280_humidity;BME280_pressure;Samples;Min_cycle;Max_cycle;Signal;HPM_P1;HPM_P2
2022/11/24 00:01:21;;;;;;;6.40;3.57;;;9.00;99.90;;;;;;5026808;28;20202;-85
2022/11/24 00:04:01;;;;;;;9.13;4.07;;;8.90;99.90;;;;;;5027259;28;20205;-87
2022/11/24 00:06:28;;;;;;;4.93;3.30;;;8.90;99.90;;;;;;5027414;28;20734;-86
2022/11/24 00:08:55;;;;;;;7.67;3.70;;;9.00;99.90;;;;;;5027435;28;20205;-83
2022/11/24 00:11:26;;;;;;;5.27;3.40;;;8.90;99.90;;;;;;5026886;28;20205;-85
2022/11/24 00:13:52;;;;;;;5.90;3.60;;;9.00;99.90;;;;;;5027459;28;20189;-86
2022/11/24 00:16:23;;;;;;;8.23;3.50;;;8.90;99.90;;;;;;5009497;28;20273;-85
2022/11/24 00:18:51;;;;;;;9.10;3.80;;;8.80;99.90;;;;;;5027212;28;20279;-85
2022/11/24 00:21:18;;;;;;;7.20;3.50;;;8.90;99.90;;;;;;5027555;28;20225;-86
2022/11/24 00:23:44;;;;;;;5.93;3.47;;;8.90;99.90;;;;;;5026790;28;20217;-84
2022/11/24 00:26:15;;;;;;;6.53;3.37;;;8.80;99.90;;;;;;5027054;28;20186;-85
2022/11/24 00:28:42;;;;;;;7.13;3.23;;;8.90;99.90;;;;;;5026954;28;20221;-85
2022/11/24 00:31:19;;;;;;;8.17;3.67;;;8.90;99.90;;;;;;5027240;28;20247;-82
2022/11/24 00:33:47;;;;;;;6.83;3.43;;;8.90;99.90;;;;;;5025405;28;20185;-87
2022/11/24 00:36:13;;;;;;;5.67;3.30;;;8.90;99.90;;;;;;5026900;28;20217;-84
2022/11/24 00:38:39;;;;;;;6.47;3.30;;;8.80;99.90;;;;;;5027040;28;20213;-85
2022/11/24 00:41:05;;;;;;;7.10;3.30;;;8.80;99.90;;;;;;5026972;28;20243;-85
2022/11/24 00:43:31;;;;;;;4.70;3.40;;;9.00;99.90;;;;;;5027095;28;20212;-85
2022/11/24 00:45:57;;;;;;;6.13;3.23;;;9.00;99.90;;;;;;5026860;28;20197;-85
2022/11/24 00:48:23;;;;;;;7.97;3.03;;;9.00;99.90;;;;;;5026422;28;20293;-85
2022/11/24 00:50:57;;;;;;;7.20;3.47;;;9.00;99.90;;;;;;5010234;28;20209;-86
2022/11/24 00:53:23;;;;;;;5.23;2.93;;;8.90;99.90;;;;;;5026409;28;20185;-85
2022/11/24 00:55:50;;;;;;;5.63;3.40;;;8.90;99.90;;;;;;5009286;28;20185;-86
2022/11/24 00:58:15;;;;;;;7.93;2.80;;;8.90;99.90;;;;;;5026976;28;20261;-85
2022/11/24 01:00:41;;;;;;;6.17;3.00;;;8.90;99.90;;;;;;5026481;28;20205;-85
2022/11/24 01:03:07;;;;;;;6.87;2.93;;;8.90;99.90;;;;;;5026956;28;20190;-87
2022/11/24 01:05:36;;;;;;;7.67;2.90;;;9.10;99.90;;;;;;5026367;28;20212;-85
2022/11/24 01:08:02;;;;;;;6.17;2.90;;;9.20;99.90;;;;;;5025888;28;20181;-85
2022/11/24 01:10:28;;;;;;;4.20;2.70;;;9.10;99.90;;;;;;5024688;28;20265;-87
2022/11/24 01:12:53;;;;;;;5.87;3.17;;;9.10;99.90;;;;;;5025223;28;20264;-85
2022/11/24 01:15:19;;;;;;;4.40;2.60;;;9.10;99.90;;;;;;5025754;28;20208;-85
2022/11/24 01:17:45;;;;;;;5.07;2.50;;;9.10;99.90;;;;;;5016858;28;20216;-86
2022/11/24 01:20:11;;;;;;;4.07;2.60;;;9.00;99.90;;;;;;5025207;28;20284;-83
2022/11/24 01:22:37;;;;;;;7.00;3.00;;;9.10;99.90;;;;;;5025826;28;20197;-86
2022/11/24 01:25:07;;;;;;;5.10;2.60;;;9.00;99.90;;;;;;5025920;28;20186;-85
2022/11/24 01:27:32;;;;;;;3.73;2.80;;;9.00;99.90;;;;;;5023603;28;20185;-84
2022/11/24 01:29:58;;;;;;;5.07;2.60;;;9.10;99.90;;;;;;5022815;28;20218;-84
2022/11/24 01:32:24;;;;;;;7.30;3.20;;;9.10;99.90;;;;;;5021886;28;20178;-84
2022/11/24 01:34:49;;;;;;;4.57;2.33;;;9.10;99.90;;;;;;5024255;28;20239;-84
2022/11/24 01:37:15;;;;;;;4.57;2.77;;;9.00;99.90;;;;;;5022169;28;20178;-85
2022/11/24 01:39:41;;;;;;;4.40;2.50;;;9.00;99.90;;;;;;5022139;28;20228;-84
2022/11/24 01:42:06;;;;;;;4.90;2.80;;;9.00;99.90;;;;;;5022601;28;20244;-85
2022/11/24 01:44:32;;;;;;;6.27;2.57;;;9.00;99.90;;;;;;5022794;28;20551;-85
2022/11/24 01:47:13;;;;;;;8.50;2.70;;;9.00;99.90;;;;;;5021884;28;20174;-85
2022/11/24 01:49:46;;;;;;;3.90;2.10;;;9.00;99.90;;;;;;5021654;28;20233;-82
2022/11/24 01:52:18;;;;;;;5.50;2.47;;;9.00;99.90;;;;;;5022125;28;20192;-85
2022/11/24 01:55:05;;;;;;;4.73;2.30;;;9.00;99.90;;;;;;5022080;28;20178;-85
2022/11/24 01:57:40;;;;;;;3.73;2.37;;;9.00;99.90;;;;;;5019763;28;20264;-86
2022/11/24 02:00:12;;;;;;;5.33;2.60;;;9.00;99.90;;;;;;5021290;28;20204;-85
2022/11/24 02:02:38;;;;;;;5.00;2.70;;;9.10;99.90;;;;;;5021537;28;20541;-83
2022/11/24 02:05:18;;;;;;;5.50;2.50;;;9.00;99.90;;;;;;5021988;28;20178;-84
2022/11/24 02:07:45;;;;;;;4.17;2.27;;;9.00;99.90;;;;;;5022242;28;20200;-84
2022/11/24 02:10:15;;;;;;;5.57;2.33;;;9.00;99.90;;;;;;5021919;28;20210;-84
2022/11/24 02:12:45;;;;;;;5.83;2.53;;;8.90;99.90;;;;;;5016910;28;20186;-84
2022/11/24 02:15:11;;;;;;;4.73;2.60;;;9.00;99.90;;;;;;5021589;28;20271;-86
2022/11/24 02:17:37;;;;;;;5.83;2.57;;;9.00;99.90;;;;;;5025908;28;20947;-84
2022/11/24 02:20:08;;;;;;;5.67;2.57;;;8.90;99.90;;;;;;5024052;28;20209;-85
2022/11/24 02:22:43;;;;;;;7.13;2.50;;;9.00;99.90;;;;;;5025396;28;20196;-85
2022/11/24 02:25:27;;;;;;;3.63;2.30;;;8.90;99.90;;;;;;5025644;28;20178;-85
2022/11/24 02:27:54;;;;;;;4.27;2.80;;;8.70;99.90;;;;;;5025630;28;20185;-84
2022/11/24 02:30:20;;;;;;;4.40;2.43;;;8.70;99.90;;;;;;5025675;28;20749;-85
2022/11/24 02:32:46;;;;;;;4.73;2.70;;;8.70;99.90;;;;;;5025725;28;20280;-85
2022/11/24 02:35:12;;;;;;;6.60;2.67;;;8.70;99.90;;;;;;5028376;28;20188;-85
2022/11/24 02:37:37;;;;;;;7.77;2.67;;;8.60;99.90;;;;;;5024923;28;20200;-85
2022/11/24 02:40:04;;;;;;;4.00;2.47;;;8.60;99.90;;;;;;5025141;28;20575;-85
2022/11/24 02:42:34;;;;;;;3.60;2.70;;;8.70;99.90;;;;;;5025143;28;20190;-83
2022/11/24 02:45:00;;;;;;;4.93;2.47;;;8.60;99.90;;;;;;5024552;28;20189;-86
2022/11/24 02:47:26;;;;;;;3.93;2.63;;;8.60;99.90;;;;;;5024658;28;20387;-86
2022/11/24 02:49:52;;;;;;;2.60;2.40;;;8.70;99.90;;;;;;5023444;28;20296;-85
2022/11/24 02:52:18;;;;;;;3.97;2.80;;;8.60;99.90;;;;;;5023496;28;20232;-85
2022/11/24 02:54:44;;;;;;;6.13;2.80;;;8.70;99.90;;;;;;5024774;28;20199;-85
2022/11/24 02:57:10;;;;;;;3.90;2.50;;;8.60;99.90;;;;;;5026464;28;20185;-85
2022/11/24 02:59:36;;;;;;;5.47;2.70;;;8.60;99.90;;;;;;5026712;28;20284;-84
2022/11/24 03:02:02;;;;;;;6.90;2.53;;;8.60;99.90;;;;;;5026879;28;20268;-86
2022/11/24 03:04:27;;;;;;;4.23;2.50;;;8.50;99.90;;;;;;5026290;28;20196;-85
2022/11/24 03:06:53;;;;;;;6.33;2.57;;;8.50;99.90;;;;;;5026624;28;20241;-86
2022/11/24 03:09:19;;;;;;;9.63;3.03;;;8.50;99.90;;;;;;5019298;28;20193;-85
2022/11/24 03:11:45;;;;;;;5.40;2.57;;;8.40;99.90;;;;;;5026343;28;20216;-85
2022/11/24 03:14:10;;;;;;;7.83;3.00;;;8.50;99.90;;;;;;5025996;28;20276;-85
2022/11/24 03:16:36;;;;;;;5.73;2.87;;;8.40;99.90;;;;;;5025511;28;20189;-86
2022/11/24 03:19:02;;;;;;;4.60;2.60;;;8.30;99.90;;;;;;5026638;28;20208;-86
2022/11/24 03:21:28;;;;;;;3.50;2.57;;;8.40;99.90;;;;;;5027134;28;20211;-85
2022/11/24 03:23:53;;;;;;;6.47;3.00;;;8.40;99.90;;;;;;5025718;28;20278;-85
2022/11/24 03:26:21;;;;;;;4.10;2.63;;;8.30;99.90;;;;;;5027104;28;20189;-85
2022/11/24 03:28:46;;;;;;;5.87;2.70;;;8.30;99.90;;;;;;5025903;28;20193;-84
2022/11/24 03:31:12;;;;;;;5.13;2.40;;;8.40;99.90;;;;;;5026452;28;20205;-84
2022/11/24 03:33:38;;;;;;;8.47;3.53;;;8.40;99.90;;;;;;5025680;28;20185;-86
2022/11/24 03:36:05;;;;;;;4.77;3.10;;;8.30;99.90;;;;;;5025934;28;20283;-84
2022/11/24 03:38:30;;;;;;;6.77;3.00;;;8.30;99.90;;;;;;5025062;28;20197;-85
2022/11/24 03:40:56;;;;;;;6.13;2.90;;;8.30;99.90;;;;;;5025405;28;20249;-85
2022/11/24 03:43:22;;;;;;;6.80;3.37;;;8.30;99.90;;;;;;5025532;28;20193;-86
2022/11/24 03:45:48;;;;;;;10.27;3.40;;;8.30;99.90;;;;;;5025582;28;20269;-86
2022/11/24 03:48:16;;;;;;;6.90;3.07;;;8.30;99.90;;;;;;5026085;28;20185;-86
2022/11/24 03:50:42;;;;;;;4.20;2.67;;;8.40;99.90;;;;;;5025579;28;20237;-86
2022/11/24 03:53:08;;;;;;;7.53;3.30;;;8.40;99.90;;;;;;5025244;28;20173;-85
2022/11/24 03:55:34;;;;;;;9.17;3.17;;;8.50;99.90;;;;;;5025858;28;20257;-85
2022/11/24 03:58:01;;;;;;;6.43;2.90;;;8.50;99.90;;;;;;5025221;28;20297;-85
2022/11/24 04:00:26;;;;;;;8.47;3.30;;;8.40;99.90;;;;;;5025506;28;20324;-85
2022/11/24 04:02:53;;;;;;;8.73;3.53;;;8.40;99.90;;;;;;5025008;28;20262;-87
2022/11/24 04:05:18;;;;;;;12.53;3.80;;;8.40;99.90;;;;;;5025363;28;20253;-87
2022/11/24 04:07:44;;;;;;;11.47;3.40;;;8.40;99.90;;;;;;5021807;28;20271;-85
2022/11/24 04:10:10;;;;;;;10.30;3.27;;;8.60;99.90;;;;;;5022933;28;20248;-86
2022/11/24 04:12:44;;;;;;;6.83;3.47;;;8.70;99.90;;;;;;5024742;28;20213;-86
2022/11/24 04:15:16;;;;;;;5.97;3.53;;;8.60;99.90;;;;;;5027064;28;20189;-86
2022/11/24 04:17:41;;;;;;;4.93;3.13;;;8.60;99.90;;;;;;5026711;28;20177;-85
2022/11/24 04:20:08;;;;;;;8.10;3.40;;;8.60;99.90;;;;;;5027907;28;20276;-85
2022/11/24 04:22:34;;;;;;;9.90;4.13;;;8.60;99.90;;;;;;5028123;28;20677;-85
2022/11/24 04:25:00;;;;;;;9.73;3.97;;;8.50;99.90;;;;;;5027796;28;20178;-85
2022/11/24 04:27:26;;;;;;;11.77;4.37;;;8.60;99.90;;;;;;5027255;28;20213;-84
2022/11/24 04:29:52;;;;;;;6.13;3.27;;;8.60;99.90;;;;;;5027863;28;20186;-87
2022/11/24 04:32:17;;;;;;;8.63;3.43;;;8.60;99.90;;;;;;5028212;28;20182;-86
2022/11/24 04:34:43;;;;;;;5.63;3.03;;;8.60;99.90;;;;;;5027766;28;20198;-85
2022/11/24 04:37:09;;;;;;;11.87;3.83;;;8.70;99.90;;;;;;5027861;28;20178;-86
2022/11/24 04:39:35;;;;;;;10.90;3.87;;;8.70;99.90;;;;;;5011169;28;20205;-85
2022/11/24 04:42:01;;;;;;;9.40;3.53;;;8.70;99.90;;;;;;5010141;28;20221;-86
2022/11/24 04:44:26;;;;;;;6.37;3.40;;;8.70;99.90;;;;;;5027905;28;20192;-87
2022/11/24 04:46:52;;;;;;;8.07;3.50;;;8.60;99.90;;;;;;5027634;28;20205;-85
2022/11/24 04:49:18;;;;;;;7.57;3.50;;;8.60;99.90;;;;;;5027742;28;20486;-86
2022/11/24 04:51:44;;;;;;;7.80;3.60;;;8.60;99.90;;;;;;5028089;28;20209;-85
2022/11/24 04:54:12;;;;;;;5.47;3.53;;;8.60;99.90;;;;;;5027346;28;20209;-85
2022/11/24 04:56:39;;;;;;;11.17;3.57;;;8.70;99.90;;;;;;5027707;28;20186;-85
2022/11/24 04:59:05;;;;;;;8.60;3.47;;;8.80;99.90;;;;;;5027706;28;20213;-85
2022/11/24 05:01:31;;;;;;;8.67;3.10;;;8.80;99.90;;;;;;5023620;28;20241;-86
2022/11/24 05:03:57;;;;;;;7.20;3.67;;;8.80;99.90;;;;;;5027839;28;20181;-86
2022/11/24 05:06:23;;;;;;;7.40;3.33;;;8.90;99.90;;;;;;5026476;28;20225;-85
2022/11/24 05:08:51;;;;;;;6.33;3.17;;;9.00;99.90;;;;;;5027923;28;20189;-88
2022/11/24 05:11:17;;;;;;;8.77;3.10;;;8.80;99.90;;;;;;5027733;28;20209;-85
2022/11/24 05:13:43;;;;;;;11.53;3.37;;;8.80;99.90;;;;;;5028412;28;20265;-85
2022/11/24 05:16:08;;;;;;;8.43;3.30;;;8.80;99.90;;;;;;5032769;28;20186;-87
2022/11/24 05:18:34;;;;;;;11.30;4.17;;;8.90;99.90;;;;;;5032222;28;20279;-86
2022/11/24 05:21:00;;;;;;;8.13;3.60;;;8.80;99.90;;;;;;5031594;28;20190;-86
2022/11/24 05:23:26;;;;;;;9.43;3.70;;;8.70;99.90;;;;;;5030115;28;20193;-84
2022/11/24 05:25:53;;;;;;;9.33;3.93;;;8.80;99.90;;;;;;5027995;28;20204;-87
2022/11/24 05:28:18;;;;;;;9.33;4.00;;;8.80;99.90;;;;;;5026972;28;20190;-86
2022/11/24 05:30:44;;;;;;;7.80;3.43;;;8.80;99.90;;;;;;5044280;28;20232;-87
2022/11/24 05:33:17;;;;;;;7.13;3.70;;;8.90;99.90;;;;;;5033263;28;21022;-84
2022/11/24 05:35:43;;;;;;;11.87;3.77;;;8.80;99.90;;;;;;5031976;28;20197;-85
2022/11/24 05:38:10;;;;;;;10.03;3.73;;;8.70;99.90;;;;;;5031123;28;20231;-84
2022/11/24 05:40:37;;;;;;;10.00;3.87;;;8.70;99.90;;;;;;5030997;28;20205;-85
2022/11/24 05:43:03;;;;;;;9.43;3.80;;;8.60;99.90;;;;;;5031146;28;20195;-86
2022/11/24 05:45:28;;;;;;;9.23;3.60;;;8.60;99.90;;;;;;5029440;28;20204;-87
2022/11/24 05:47:54;;;;;;;7.37;3.13;;;8.60;99.90;;;;;;5033172;28;20249;-84
2022/11/24 05:50:21;;;;;;;11.47;4.57;;;8.70;99.90;;;;;;5035795;28;20214;-85
2022/11/24 05:52:48;;;;;;;10.20;4.23;;;8.70;99.90;;;;;;5035079;28;20624;-85
2022/11/24 05:55:14;;;;;;;8.10;4.20;;;8.80;99.90;;;;;;5033973;28;20185;-84
2022/11/24 05:57:40;;;;;;;13.43;4.47;;;8.80;99.90;;;;;;5034446;28;20178;-84
2022/11/24 06:00:07;;;;;;;10.80;3.80;;;8.80;99.90;;;;;;5013421;28;20249;-85
2022/11/24 06:02:33;;;;;;;8.97;3.97;;;8.70;99.90;;;;;;5028719;28;20586;-85
2022/11/24 06:04:58;;;;;;;13.00;4.20;;;8.80;99.90;;;;;;5032995;28;20185;-85
2022/11/24 06:07:24;;;;;;;9.90;3.73;;;8.70;99.90;;;;;;5034226;28;20212;-87
2022/11/24 06:09:50;;;;;;;9.30;4.30;;;8.70;99.90;;;;;;5034280;28;20181;-85
2022/11/24 06:12:15;;;;;;;12.13;3.57;;;8.70;99.90;;;;;;5033599;28;20185;-86
2022/11/24 06:14:41;;;;;;;11.97;4.23;;;8.60;99.90;;;;;;5033966;28;20284;-83
2022/11/24 06:17:08;;;;;;;12.73;4.00;;;8.60;99.90;;;;;;5033922;28;20177;-83
2022/11/24 06:19:34;;;;;;;13.63;4.33;;;8.70;99.90;;;;;;5033720;28;20212;-85
2022/11/24 06:22:00;;;;;;;12.10;4.23;;;8.80;99.90;;;;;;5034395;28;20249;-86
2022/11/24 06:24:25;;;;;;;9.37;3.90;;;8.60;99.90;;;;;;5033429;28;20209;-84
2022/11/24 06:26:51;;;;;;;12.67;4.33;;;8.50;99.90;;;;;;5033005;28;20189;-84
2022/11/24 06:29:17;;;;;;;15.10;4.03;;;8.60;99.90;;;;;;5033979;28;20197;-83
2022/11/24 06:31:43;;;;;;;12.80;3.97;;;8.50;99.90;;;;;;5034356;28;20249;-85
2022/11/24 06:34:10;;;;;;;11.20;4.03;;;8.40;99.90;;;;;;5035824;28;20213;-84
2022/11/24 06:36:37;;;;;;;10.77;4.50;;;8.40;99.90;;;;;;5032914;28;20197;-86
2022/11/24 06:39:04;;;;;;;13.37;5.10;;;8.50;99.90;;;;;;5034361;28;20201;-84
2022/11/24 06:41:30;;;;;;;14.10;4.77;;;8.40;99.90;;;;;;5033213;28;20205;-87
2022/11/24 06:43:55;;;;;;;14.70;4.57;;;8.30;99.90;;;;;;5034277;28;20204;-88
2022/11/24 06:46:21;;;;;;;9.87;3.70;;;8.40;99.90;;;;;;5034344;28;20185;-84
2022/11/24 06:48:49;;;;;;;9.33;4.27;;;8.40;99.90;;;;;;5032732;28;20189;-85
2022/11/24 06:51:17;;;;;;;14.27;4.63;;;8.30;99.90;;;;;;5034041;28;20212;-86
2022/11/24 06:53:43;;;;;;;8.80;3.53;;;8.20;99.90;;;;;;5008643;28;20202;-87
2022/11/24 06:56:11;;;;;;;15.87;3.93;;;8.20;99.90;;;;;;5029777;28;20216;-86
2022/11/24 06:58:46;;;;;;;14.60;4.87;;;8.30;99.90;;;;;;5034236;28;20261;-86
2022/11/24 07:01:26;;;;;;;12.73;4.20;;;8.30;99.90;;;;;;5034629;28;20344;-85
2022/11/24 07:03:53;;;;;;;7.07;3.73;;;8.30;99.90;;;;;;5034582;28;20181;-85
2022/11/24 07:06:19;;;;;;;5.87;2.93;;;8.20;99.90;;;;;;5034132;28;20192;-86
2022/11/24 07:08:46;;;;;;;9.97;3.43;;;8.20;99.90;;;;;;5032457;28;20182;-84
2022/11/24 07:11:15;;;;;;;12.60;3.87;;;8.20;99.90;;;;;;5032732;28;20304;-83
2022/11/24 07:13:45;;;;;;;10.03;3.43;;;8.30;99.90;;;;;;5032810;28;20256;-84
2022/11/24 07:16:16;;;;;;;8.70;3.43;;;8.20;99.90;;;;;;5033188;28;20185;-85
2022/11/24 07:18:44;;;;;;;7.10;3.60;;;8.10;99.90;;;;;;5033308;28;20202;-85
2022/11/24 07:21:10;;;;;;;13.83;4.33;;;8.10;99.90;;;;;;5032939;28;20189;-85
2022/11/24 07:23:36;;;;;;;10.53;3.77;;;8.20;99.90;;;;;;5033493;28;20197;-84
2022/11/24 07:26:06;;;;;;;10.57;3.57;;;8.10;99.90;;;;;;5032901;28;20161;-86
2022/11/24 07:28:33;;;;;;;11.93;3.53;;;8.10;99.90;;;;;;5029058;28;20232;-85
2022/11/24 07:31:03;;;;;;;8.73;3.60;;;8.10;99.90;;;;;;5031977;28;20240;-85
2022/11/24 07:33:29;;;;;;;11.13;4.03;;;8.10;99.90;;;;;;5038877;28;20188;-86
2022/11/24 07:35:59;;;;;;;11.13;3.87;;;8.20;99.90;;;;;;5031280;28;20200;-84
2022/11/24 07:38:25;;;;;;;9.70;2.87;;;8.10;99.90;;;;;;5029773;28;20205;-84
2022/11/24 07:40:50;;;;;;;9.00;3.13;;;8.10;99.90;;;;;;5028882;28;20829;-83
2022/11/24 07:43:16;;;;;;;9.17;3.30;;;8.10;99.90;;;;;;5029767;28;20261;-84
2022/11/24 07:45:42;;;;;;;9.33;2.93;;;8.10;99.90;;;;;;5029770;28;20178;-83
2022/11/24 07:48:09;;;;;;;6.07;2.50;;;8.10;99.90;;;;;;5029714;28;20185;-82
2022/11/24 07:50:34;;;;;;;5.43;2.20;;;8.10;99.90;;;;;;5027408;28;20206;-84
2022/11/24 07:53:02;;;;;;;3.63;2.30;;;8.10;99.90;;;;;;5029142;28;20186;-81
2022/11/24 07:55:28;;;;;;;3.67;2.10;;;8.10;99.90;;;;;;5030426;28;20186;-84
2022/11/24 07:57:58;;;;;;;4.13;2.30;;;8.00;99.90;;;;;;5030457;28;20227;-83
2022/11/24 08:00:23;;;;;;;3.07;2.43;;;8.00;99.90;;;;;;5030070;28;20236;-83
2022/11/24 08:02:49;;;;;;;4.63;2.47;;;8.10;99.90;;;;;;5029971;28;20225;-85
2022/11/24 08:05:15;;;;;;;5.03;2.27;;;8.20;99.90;;;;;;5030497;28;20197;-84
2022/11/24 08:07:41;;;;;;;4.70;1.93;;;8.10;99.90;;;;;;5032234;28;20188;-84
2022/11/24 08:10:07;;;;;;;3.90;2.00;;;8.00;99.90;;;;;;5031665;28;20209;-83
2022/11/24 08:12:32;;;;;;;5.70;2.33;;;8.10;99.90;;;;;;5030767;28;20193;-86
2022/11/24 08:14:58;;;;;;;4.10;2.10;;;8.10;99.90;;;;;;5032596;28;20467;-83
2022/11/24 08:17:24;;;;;;;6.63;2.57;;;8.10;99.90;;;;;;5032333;28;20193;-85
2022/11/24 08:19:50;;;;;;;3.90;2.10;;;8.10;99.90;;;;;;5011938;28;20213;-83
2022/11/24 08:22:16;;;;;;;2.50;2.00;;;8.10;99.90;;;;;;5030266;28;20215;-85
2022/11/24 08:24:45;;;;;;;3.13;2.13;;;8.20;99.90;;;;;;5029363;28;20220;-84
2022/11/24 08:27:12;;;;;;;3.97;1.97;;;8.30;99.90;;;;;;5029921;28;20211;-83
2022/11/24 08:29:38;;;;;;;3.63;1.80;;;8.20;99.90;;;;;;5029859;28;20218;-86
2022/11/24 08:32:04;;;;;;;3.63;1.77;;;8.30;99.90;;;;;;5030056;28;20233;-86
2022/11/24 08:34:30;;;;;;;2.80;1.53;;;8.20;99.90;;;;;;5030107;28;20186;-84
2022/11/24 08:36:55;;;;;;;1.97;1.53;;;8.40;99.90;;;;;;5029171;28;20214;-86
2022/11/24 08:39:21;;;;;;;2.87;1.70;;;8.40;99.90;;;;;;5030171;28;20210;-83
2022/11/24 08:41:47;;;;;;;4.03;1.87;;;8.50;99.90;;;;;;5030498;28;20193;-86
2022/11/24 08:44:14;;;;;;;2.17;1.77;;;8.50;99.90;;;;;;5013021;28;20208;-83
2022/11/24 08:46:40;;;;;;;2.80;1.70;;;8.50;99.90;;;;;;5029551;28;20196;-83
2022/11/24 08:49:07;;;;;;;1.80;1.47;;;8.30;99.90;;;;;;5030434;28;20181;-83
2022/11/24 08:51:33;;;;;;;3.20;2.00;;;8.30;99.90;;;;;;5030075;28;20201;-84
2022/11/24 08:54:00;;;;;;;4.23;1.70;;;8.40;99.90;;;;;;5030610;28;20196;-83
2022/11/24 08:56:30;;;;;;;2.70;1.67;;;8.40;99.90;;;;;;5029975;28;20189;-83
2022/11/24 08:58:57;;;;;;;2.30;1.70;;;8.30;99.90;;;;;;5026704;28;20225;-83
2022/11/24 09:01:23;;;;;;;2.87;2.00;;;8.20;99.90;;;;;;5030715;28;20201;-83
2022/11/24 09:03:49;;;;;;;2.30;1.87;;;8.20;99.90;;;;;;5030983;28;20178;-85
2022/11/24 09:06:17;;;;;;;3.20;1.90;;;8.30;99.90;;;;;;5028921;28;20193;-85
2022/11/24 09:08:43;;;;;;;2.10;1.90;;;8.30;99.90;;;;;;5029755;28;20189;-84
2022/11/24 09:11:11;;;;;;;2.73;1.70;;;8.50;99.90;;;;;;5029477;28;20260;-83
2022/11/24 09:13:37;;;;;;;3.03;1.77;;;8.40;99.90;;;;;;5030734;28;20213;-83
2022/11/24 09:16:08;;;;;;;3.50;2.00;;;8.30;99.90;;;;;;5030369;28;20186;-84
2022/11/24 09:18:34;;;;;;;4.13;2.53;;;8.50;99.90;;;;;;5028879;28;20366;-83
2022/11/24 09:21:18;;;;;;;3.17;2.23;;;8.50;99.90;;;;;;5030310;28;20208;-85
2022/11/24 09:23:47;;;;;;;3.57;2.60;;;8.40;99.90;;;;;;5030466;28;20265;-84
2022/11/24 09:26:17;;;;;;;2.70;2.20;;;8.60;99.90;;;;;;5029593;28;20189;-88
2022/11/24 09:28:44;;;;;;;2.47;1.80;;;8.60;99.90;;;;;;5029712;28;20259;-86
2022/11/24 09:31:12;;;;;;;3.27;2.10;;;8.60;99.90;;;;;;5030184;28;20224;-84
2022/11/24 09:33:38;;;;;;;3.03;2.17;;;8.70;99.90;;;;;;5036155;28;20177;-83
2022/11/24 09:36:04;;;;;;;2.53;1.93;;;8.70;99.90;;;;;;5038278;28;20253;-83
2022/11/24 09:38:30;;;;;;;3.23;2.20;;;8.60;99.90;;;;;;5014172;28;20204;-84
2022/11/24 09:41:17;;;;;;;3.30;2.10;;;8.70;99.90;;;;;;5030715;28;20201;-84
2022/11/24 09:44:01;;;;;;;4.17;2.30;;;8.80;99.90;;;;;;5032794;28;20189;-86
2022/11/24 09:46:42;;;;;;;4.17;2.47;;;8.80;99.90;;;;;;5035639;28;20200;-85
2022/11/24 09:49:29;;;;;;;5.00;2.57;;;8.80;99.90;;;;;;5034747;28;20185;-83
2022/11/24 09:51:56;;;;;;;5.83;2.63;;;8.70;99.90;;;;;;5027710;28;20194;-84
2022/11/24 09:54:27;;;;;;;4.80;2.43;;;8.60;99.90;;;;;;5028983;28;20181;-84
2022/11/24 09:56:54;;;;;;;6.27;2.83;;;8.50;99.90;;;;;;5028826;28;20189;-82
2022/11/24 09:59:21;;;;;;;6.07;3.03;;;8.60;99.90;;;;;;5027950;28;20206;-84
2022/11/24 10:01:48;;;;;;;4.40;2.40;;;8.70;99.90;;;;;;5029094;28;20210;-84
2022/11/24 10:04:25;;;;;;;3.83;2.57;;;8.60;99.90;;;;;;5028372;28;20173;-84
2022/11/24 10:07:12;;;;;;;5.47;2.50;;;8.70;99.90;;;;;;5011598;28;20177;-84
2022/11/24 10:10:02;;;;;;;5.20;2.60;;;8.70;99.90;;;;;;5026550;28;20196;-85
2022/11/24 10:12:30;;;;;;;5.10;2.57;;;8.80;99.90;;;;;;5021790;28;20241;-83
2022/11/24 10:15:05;;;;;;;6.57;3.17;;;8.80;99.90;;;;;;5029899;28;20182;-83
2022/11/24 10:17:45;;;;;;;7.43;3.17;;;8.80;99.90;;;;;;5018859;28;20207;-84
2022/11/24 10:20:21;;;;;;;8.17;3.10;;;9.10;99.90;;;;;;5028290;28;20205;-84
2022/11/24 10:22:59;;;;;;;8.20;3.23;;;9.60;99.90;;;;;;5027597;28;20185;-85
2022/11/24 10:25:29;;;;;;;6.17;3.10;;;10.00;99.90;;;;;;5027475;28;20181;-86
2022/11/24 10:27:58;;;;;;;6.57;3.70;;;10.10;99.90;;;;;;5026980;28;20177;-85
2022/11/24 10:30:25;;;;;;;8.57;3.40;;;9.90;99.90;;;;;;5027457;28;20202;-83
2022/11/24 10:33:01;;;;;;;6.17;3.03;;;9.90;99.90;;;;;;5027914;28;20209;-85
2022/11/24 10:35:39;;;;;;;8.50;4.03;;;9.80;99.90;;;;;;5013908;28;20189;-85
2022/11/24 10:38:10;;;;;;;10.20;3.73;;;10.00;99.90;;;;;;5031023;28;20922;-86
2022/11/24 10:41:08;;;;;;;8.17;3.20;;;10.30;99.90;;;;;;5015270;28;20280;-85
2022/11/24 10:43:34;;;;;;;8.10;3.57;;;10.70;99.90;;;;;;5019601;28;20282;-84
2022/11/24 10:46:24;;;;;;;7.83;3.53;;;11.10;99.90;;;;;;5029539;28;20186;-84
2022/11/24 10:48:59;;;;;;;10.77;3.63;;;11.20;99.90;;;;;;5030381;28;20187;-85
2022/11/24 10:52:04;;;;;;;10.63;4.03;;;11.10;99.90;;;;;;5031280;28;20213;-87
2022/11/24 10:54:31;;;;;;;9.33;3.40;;;10.90;99.90;;;;;;5026863;28;20201;-84
2022/11/24 10:56:57;;;;;;;9.57;3.90;;;10.70;99.90;;;;;;5030352;28;20189;-84
2022/11/24 10:59:23;;;;;;;6.70;3.90;;;10.40;99.90;;;;;;5014958;28;20237;-85
2022/11/24 11:01:49;;;;;;;9.83;3.90;;;10.30;99.90;;;;;;5031644;28;20209;-85
2022/11/24 11:04:20;;;;;;;10.43;3.97;;;10.20;99.90;;;;;;5031416;28;20186;-85
2022/11/24 11:06:46;;;;;;;10.63;4.17;;;10.10;99.90;;;;;;5031164;28;20193;-86
2022/11/24 11:09:20;;;;;;;11.87;4.10;;;10.10;99.90;;;;;;5030906;28;20194;-87
2022/11/24 11:11:50;;;;;;;5.77;3.63;;;10.10;99.90;;;;;;5029643;28;20220;-85
2022/11/24 11:14:31;;;;;;;12.17;4.63;;;10.20;99.90;;;;;;5030034;28;20311;-85
2022/11/24 11:16:57;;;;;;;10.30;3.83;;;10.40;99.90;;;;;;5031962;28;20196;-88
2022/11/24 11:19:34;;;;;;;8.90;4.00;;;10.40;99.90;;;;;;5031916;28;20207;-87
2022/11/24 11:22:22;;;;;;;10.57;4.07;;;10.50;99.90;;;;;;5032161;28;20217;-85
2022/11/24 11:25:01;;;;;;;11.70;4.77;;;10.40;99.90;;;;;;5031218;28;20214;-85
2022/11/24 11:27:27;;;;;;;8.40;4.50;;;10.40;99.90;;;;;;4994227;28;20197;-85
2022/11/24 11:29:52;;;;;;;12.03;5.13;;;10.30;99.90;;;;;;5024033;28;20181;-84
2022/11/24 11:32:29;;;;;;;12.83;4.13;;;10.50;99.90;;;;;;5031900;28;20189;-86
2022/11/24 11:34:56;;;;;;;11.53;4.27;;;10.50;99.90;;;;;;5032097;28;20197;-87
2022/11/24 11:37:26;;;;;;;10.83;4.10;;;10.40;99.90;;;;;;5032598;28;20194;-86
2022/11/24 11:39:54;;;;;;;16.07;4.50;;;10.40;99.90;;;;;;5031185;28;20198;-86
2022/11/24 11:42:28;;;;;;;6.67;3.83;;;10.40;99.90;;;;;;5031024;28;20182;-85
2022/11/24 11:45:02;;;;;;;12.27;4.30;;;10.50;99.90;;;;;;5019466;28;20181;-85
2022/11/24 11:47:38;;;;;;;8.80;3.63;;;10.60;99.90;;;;;;5028061;28;20611;-88
2022/11/24 11:50:14;;;;;;;12.30;4.07;;;10.50;99.90;;;;;;5035085;28;20208;-88
2022/11/24 11:53:13;;;;;;;14.90;4.40;;;10.50;99.90;;;;;;5033255;28;20193;-85
2022/11/24 11:56:03;;;;;;;8.50;4.27;;;10.30;99.90;;;;;;5036607;28;20181;-87
2022/11/24 11:58:44;;;;;;;14.23;4.37;;;10.60;99.90;;;;;;5024125;28;20212;-85
2022/11/24 12:01:25;;;;;;;8.50;3.50;;;10.50;99.90;;;;;;5031720;28;20201;-85
2022/11/24 12:04:09;;;;;;;11.67;4.27;;;10.40;99.90;;;;;;5031296;28;20233;-84
2022/11/24 12:07:02;;;;;;;10.33;4.30;;;10.70;99.90;;;;;;5027357;28;20182;-88
2022/11/24 12:09:49;;;;;;;8.83;3.70;;;11.10;99.90;;;;;;5026834;28;20197;-88
2022/11/24 12:12:14;;;;;;;9.30;4.33;;;10.90;99.90;;;;;;5028305;28;20208;-85
2022/11/24 12:14:52;;;;;;;8.40;3.97;;;11.10;99.90;;;;;;5028004;28;20189;-86
2022/11/24 12:17:43;;;;;;;9.17;3.80;;;11.30;98.10;;;;;;5028740;28;20186;-86
2022/11/24 12:20:31;;;;;;;8.20;3.57;;;11.80;95.50;;;;;;5010970;28;20234;-87
2022/11/24 12:23:14;;;;;;;9.37;4.07;;;11.80;95.70;;;;;;5019702;28;20220;-88
2022/11/24 12:26:03;;;;;;;9.67;3.50;;;11.60;93.50;;;;;;5010614;28;20175;-85
2022/11/24 12:28:58;;;;;;;10.47;3.50;;;12.10;92.60;;;;;;5026989;28;20234;-85
2022/11/24 12:31:47;;;;;;;7.07;3.30;;;12.40;89.70;;;;;;4992235;28;20247;-85
2022/11/24 12:34:33;;;;;;;8.33;3.80;;;12.60;88.80;;;;;;5019957;28;20192;-85
2022/11/24 12:37:06;;;;;;;6.70;3.03;;;12.50;89.10;;;;;;5028601;28;20192;-86
2022/11/24 12:39:50;;;;;;;8.03;3.80;;;12.40;87.00;;;;;;5030017;28;20220;-88
2022/11/24 12:42:39;;;;;;;7.77;2.83;;;12.60;86.90;;;;;;5029488;28;20181;-84
2022/11/24 12:45:16;;;;;;;9.87;3.90;;;12.80;86.80;;;;;;5028938;28;20263;-86
2022/11/24 12:48:15;;;;;;;15.87;5.43;;;13.00;85.30;;;;;;5028645;28;20191;-89
2022/11/24 12:50:44;;;;;;;13.47;5.13;;;13.20;84.40;;;;;;5028192;28;20257;-86
2022/11/24 12:53:29;;;;;;;9.53;3.87;;;13.20;80.30;;;;;;5029814;28;20206;-85
2022/11/24 12:56:09;;;;;;;11.90;3.83;;;13.10;82.10;;;;;;5026910;28;20771;-84
2022/11/24 12:58:49;;;;;;;8.00;3.20;;;13.10;80.90;;;;;;5029885;28;20208;-84
2022/11/24 13:01:20;;;;;;;9.20;3.70;;;13.00;82.20;;;;;;5031523;28;20346;-85
2022/11/24 13:04:08;;;;;;;6.67;3.23;;;12.90;82.00;;;;;;5031781;28;20196;-84
2022/11/24 13:06:50;;;;;;;6.00;3.07;;;12.70;86.00;;;;;;5031963;28;20262;-85